sensor_id;sensor_type;location;lat;lon;timestamp;P1;durP1;ratioP1;P2;durP2;ratioP2
18210;SDS011;9231;48.852;9.882;2024-01-10T00:00:16;9.37;;;5.40;;
18210;SDS011;9231;48.852;9.882;2024-01-10T00:02:43;12.00;;;5.50;;
18210;SDS011;9231;48.852;9.882;2024-01-10T00:05:09;12.27;;;6.17;;
18210;SDS011;9231;48.852;9.882;2024-01-10T00:07:35;10.20;;;6.03;;
18210;SDS011;9231;48.852;9.882;2024-01-10T00:10:04;15.13;;;7.00;;
18210;SDS011;9231;48.852;9.882;2024-01-10T00:12:30;10.83;;;5.43;;
18210;SDS011;9231;48.852;9.882;2024-01-10T00:15:01;10.80;;;6.27;;
18210;SDS011;9231;48.852;9.882;2024-01-10T00:17:27;12.43;;;5.90;;
18210;SDS011;9231;48.852;9.882;2024-01-10T00:19:53;10.70;;;6.47;;
18210;SDS011;9231;48.852;9.882;2024-01-10T00:22:20;10.97;;;6.03;;
18210;SDS011;9231;48.852;9.882;2024-01-10T00:24:46;10.90;;;6.10;;
18210;SDS011;9231;48.852;9.882;2024-01-10T00:27:15;12.87;;;5.97;;
18210;SDS011;9231;48.852;9.882;2024-01-10T00:29:41;13.60;;;6.73;;
18210;SDS011;9231;48.852;9.882;2024-01-10T00:32:08;12.33;;;6.17;;
18210;SDS011;9231;48.852;9.882;2024-01-10T00:34:34;11.77;;;6.30;;
18210;SDS011;9231;48.852;9.882;2024-01-10T00:37:00;12.40;;;6.67;;
18210;SDS011;9231;48.852;9.882;2024-01-10T00:39:27;9.97;;;5.60;;
18210;SDS011;9231;48.852;9.882;2024-01-10T00:41:53;12.43;;;6.53;;
18210;SDS011;9231;48.852;9.882;2024-01-10T00:44:21;11.17;;;6.50;;
18210;SDS011;9231;48.852;9.882;2024-01-10T00:46:47;10.90;;;5.83;;
18210;SDS011;9231;48.852;9.882;2024-01-10T00:49:14;11.17;;;6.27;;
18210;SDS011;9231;48.852;9.882;2024-01-10T00:51:40;10.60;;;6.30;;
18210;SDS011;9231;48.852;9.882;2024-01-10T00:54:07;8.87;;;5.10;;
18210;SDS011;9231;48.852;9.882;2024-01-10T00:56:33;10.87;;;6.33;;
18210;SDS011;9231;48.852;9.882;2024-01-10T00:59:00;10.07;;;5.63;;
18210;SDS011;9231;48.852;9.882;2024-01-10T01:01:27;12.33;;;6.50;;
18210;SDS011;9231;48.852;9.882;2024-01-10T01:03:55;11.57;;;6.20;;
18210;SDS011;9231;48.852;9.882;2024-01-10T01:06:21;13.43;;;6.37;;
18210;SDS011;9231;48.852;9.882;2024-01-10T01:08:47;10.20;;;6.10;;
18210;SDS011;9231;48.852;9.882;2024-01-10T01:11:14;12.97;;;6.07;;
18210;SDS011;9231;48.852;9.882;2024-01-10T01:13:40;11.83;;;6.07;;
18210;SDS011;9231;48.852;9.882;2024-01-10T01:16:07;13.50;;;6.30;;
18210;SDS011;9231;48.852;9.882;2024-01-10T01:18:34;10.93;;;6.27;;
18210;SDS011;9231;48.852;9.882;2024-01-10T01:21:01;10.77;;;5.57;;
18210;SDS011;9231;48.852;9.882;2024-01-10T01:23:28;10.10;;;5.83;;
18210;SDS011;9231;48.852;9.882;2024-01-10T01:25:54;13.63;;;6.17;;
18210;SDS011;9231;48.852;9.882;2024-01-10T01:28:21;11.90;;;6.40;;
18210;SDS011;9231;48.852;9.882;2024-01-10T01:30:47;12.20;;;6.43;;
18210;SDS011;9231;48.852;9.882;2024-01-10T01:33:13;11.00;;;6.13;;
18210;SDS011;9231;48.852;9.882;2024-01-10T01:35:41;12.13;;;6.33;;
18210;SDS011;9231;48.852;9.882;2024-01-10T01:38:08;11.27;;;6.10;;
18210;SDS011;9231;48.852;9.882;2024-01-10T01:40:34;14.70;;;6.77;;
18210;SDS011;9231;48.852;9.882;2024-01-10T01:43:00;14.40;;;6.87;;
18210;SDS011;9231;48.852;9.882;2024-01-10T01:45:27;11.47;;;6.33;;
18210;SDS011;9231;48.852;9.882;2024-01-10T01:47:53;12.57;;;6.10;;
18210;SDS011;9231;48.852;9.882;2024-01-10T01:50:20;14.87;;;7.07;;
18210;SDS011;9231;48.852;9.882;2024-01-10T01:52:48;14.47;;;6.90;;
18210;SDS011;9231;48.852;9.882;2024-01-10T01:55:14;12.70;;;6.07;;
18210;SDS011;9231;48.852;9.882;2024-01-10T01:57:41;13.30;;;6.27;;
18210;SDS011;9231;48.852;9.882;2024-01-10T02:00:08;13.17;;;7.17;;
18210;SDS011;9231;48.852;9.882;2024-01-10T02:02:35;12.30;;;6.27;;
18210;SDS011;9231;48.852;9.882;2024-01-10T02:05:02;11.77;;;6.63;;
18210;SDS011;9231;48.852;9.882;2024-01-10T02:07:31;12.83;;;5.97;;
18210;SDS011;9231;48.852;9.882;2024-01-10T02:09:59;13.63;;;7.17;;
18210;SDS011;9231;48.852;9.882;2024-01-10T02:12:26;15.33;;;6.43;;
18210;SDS011;9231;48.852;9.882;2024-01-10T02:14:52;11.90;;;6.63;;
18210;SDS011;9231;48.852;9.882;2024-01-10T02:17:19;12.30;;;6.03;;
18210;SDS011;9231;48.852;9.882;2024-01-10T02:19:45;10.90;;;5.33;;
18210;SDS011;9231;48.852;9.882;2024-01-10T02:22:11;9.80;;;5.53;;
18210;SDS011;9231;48.852;9.882;2024-01-10T02:24:38;12.50;;;6.73;;
18210;SDS011;9231;48.852;9.882;2024-01-10T02:27:05;15.63;;;7.17;;
18210;SDS011;9231;48.852;9.882;2024-01-10T02:29:31;14.63;;;6.63;;
18210;SDS011;9231;48.852;9.882;2024-01-10T02:31:58;12.47;;;7.10;;
18210;SDS011;9231;48.852;9.882;2024-01-10T02:34:24;10.73;;;5.97;;
18210;SDS011;9231;48.852;9.882;2024-01-10T02:36:50;10.60;;;5.93;;
18210;SDS011;9231;48.852;9.882;2024-01-10T02:39:17;9.97;;;6.23;;
18210;SDS011;9231;48.852;9.882;2024-01-10T02:41:43;13.33;;;6.33;;
18210;SDS011;9231;48.852;9.882;2024-01-10T02:44:11;15.33;;;6.67;;
18210;SDS011;9231;48.852;9.882;2024-01-10T02:46:39;13.03;;;6.43;;
18210;SDS011;9231;48.852;9.882;2024-01-10T02:49:05;12.17;;;7.27;;
18210;SDS011;9231;48.852;9.882;2024-01-10T02:51:32;12.37;;;6.70;;
18210;SDS011;9231;48.852;9.882;2024-01-10T02:53:59;11.50;;;6.47;;
18210;SDS011;9231;48.852;9.882;2024-01-10T02:56:25;12.20;;;6.43;;
18210;SDS011;9231;48.852;9.882;2024-01-10T02:58:52;11.67;;;6.60;;
18210;SDS011;9231;48.852;9.882;2024-01-10T03:01:19;12.13;;;6.50;;
18210;SDS011;9231;48.852;9.882;2024-01-10T03:03:46;14.90;;;7.87;;
18210;SDS011;9231;48.852;9.882;2024-01-10T03:06:12;15.80;;;7.43;;
18210;SDS011;9231;48.852;9.882;2024-01-10T03:08:39;14.40;;;7.03;;
18210;SDS011;9231;48.852;9.882;2024-01-10T03:11:05;13.60;;;6.60;;
18210;SDS011;9231;48.852;9.882;2024-01-10T03:13:31;13.87;;;7.40;;
18210;SDS011;9231;48.852;9.882;2024-01-10T03:15:58;13.37;;;7.13;;
18210;SDS011;9231;48.852;9.882;2024-01-10T03:18:26;13.50;;;7.00;;
18210;SDS011;9231;48.852;9.882;2024-01-10T03:20:52;15.00;;;7.37;;
18210;SDS011;9231;48.852;9.882;2024-01-10T03:23:19;14.30;;;7.20;;
18210;SDS011;9231;48.852;9.882;2024-01-10T03:25:47;12.83;;;6.90;;
18210;SDS011;9231;48.852;9.882;2024-01-10T03:28:15;12.10;;;6.80;;
18210;SDS011;9231;48.852;9.882;2024-01-10T03:30:41;13.23;;;6.87;;
18210;SDS011;9231;48.852;9.882;2024-01-10T03:33:08;14.37;;;7.00;;
18210;SDS011;9231;48.852;9.882;2024-01-10T03:35:35;10.10;;;5.93;;
18210;SDS011;9231;48.852;9.882;2024-01-10T03:38:02;13.27;;;6.17;;
18210;SDS011;9231;48.852;9.882;2024-01-10T03:40:29;10.20;;;6.20;;
18210;SDS011;9231;48.852;9.882;2024-01-10T03:42:55;13.13;;;6.63;;
18210;SDS011;9231;48.852;9.882;2024-01-10T03:45:21;14.83;;;7.57;;
18210;SDS011;9231;48.852;9.882;2024-01-10T03:47:48;13.63;;;6.87;;
18210;SDS011;9231;48.852;9.882;2024-01-10T03:50:16;13.87;;;7.47;;
18210;SDS011;9231;48.852;9.882;2024-01-10T03:52:44;12.30;;;6.73;;
18210;SDS011;9231;48.852;9.882;2024-01-10T03:55:11;12.93;;;6.63;;
18210;SDS011;9231;48.852;9.882;2024-01-10T03:57:38;12.40;;;6.57;;
18210;SDS011;9231;48.852;9.882;2024-01-10T04:00:05;11.27;;;6.67;;
18210;SDS011;9231;48.852;9.882;2024-01-10T04:02:32;12.23;;;6.67;;
18210;SDS011;9231;48.852;9.882;2024-01-10T04:04:58;13.83;;;7.07;;
18210;SDS011;9231;48.852;9.882;2024-01-10T04:07:26;14.93;;;7.70;;
18210;SDS011;9231;48.852;9.882;2024-01-10T04:09:54;15.23;;;7.00;;
18210;SDS011;9231;48.852;9.882;2024-01-10T04:12:20;12.83;;;6.83;;
18210;SDS011;9231;48.852;9.882;2024-01-10T04:14:47;13.63;;;7.13;;
18210;SDS011;9231;48.852;9.882;2024-01-10T04:17:13;12.90;;;6.80;;
18210;SDS011;9231;48.852;9.882;2024-01-10T04:19:40;11.33;;;6.80;;
18210;SDS011;9231;48.852;9.882;2024-01-10T04:22:06;16.20;;;7.93;;
18210;SDS011;9231;48.852;9.882;2024-01-10T04:24:32;13.43;;;7.37;;
18210;SDS011;9231;48.852;9.882;2024-01-10T04:27:00;12.63;;;7.10;;
18210;SDS011;9231;48.852;9.882;2024-01-10T04:29:29;12.33;;;7.33;;
18210;SDS011;9231;48.852;9.882;2024-01-10T04:31:56;17.60;;;7.80;;
18210;SDS011;9231;48.852;9.882;2024-01-10T04:34:22;12.90;;;6.63;;
18210;SDS011;9231;48.852;9.882;2024-01-10T04:36:49;13.17;;;6.77;;
18210;SDS011;9231;48.852;9.882;2024-01-10T04:39:16;10.93;;;6.67;;
18210;SDS011;9231;48.852;9.882;2024-01-10T04:41:43;13.17;;;7.10;;
18210;SDS011;9231;48.852;9.882;2024-01-10T04:44:11;13.70;;;7.23;;
18210;SDS011;9231;48.852;9.882;2024-01-10T04:46:37;13.80;;;7.03;;
18210;SDS011;9231;48.852;9.882;2024-01-10T04:49:06;12.77;;;6.80;;
18210;SDS011;9231;48.852;9.882;2024-01-10T04:51:32;11.60;;;6.07;;
18210;SDS011;9231;48.852;9.882;2024-01-10T04:53:58;12.50;;;7.07;;
18210;SDS011;9231;48.852;9.882;2024-01-10T04:56:25;12.00;;;7.07;;
18210;SDS011;9231;48.852;9.882;2024-01-10T04:58:52;14.03;;;6.77;;
18210;SDS011;9231;48.852;9.882;2024-01-10T05:01:19;13.90;;;7.37;;
18210;SDS011;9231;48.852;9.882;2024-01-10T05:03:46;15.07;;;6.93;;
18210;SDS011;9231;48.852;9.882;2024-01-10T05:06:12;11.47;;;6.33;;
18210;SDS011;9231;48.852;9.882;2024-01-10T05:08:39;13.03;;;6.50;;
18210;SDS011;9231;48.852;9.882;2024-01-10T05:11:05;14.73;;;6.67;;
18210;SDS011;9231;48.852;9.882;2024-01-10T05:13:33;14.40;;;6.97;;
18210;SDS011;9231;48.852;9.882;2024-01-10T05:16:00;15.33;;;7.23;;
18210;SDS011;9231;48.852;9.882;2024-01-10T05:18:27;15.60;;;7.53;;
18210;SDS011;9231;48.852;9.882;2024-01-10T05:20:54;12.83;;;7.03;;
18210;SDS011;9231;48.852;9.882;2024-01-10T05:23:20;12.80;;;7.40;;
18210;SDS011;9231;48.852;9.882;2024-01-10T05:25:47;13.93;;;7.20;;
18210;SDS011;9231;48.852;9.882;2024-01-10T05:28:13;15.03;;;7.77;;
18210;SDS011;9231;48.852;9.882;2024-01-10T05:30:40;14.80;;;7.60;;
18210;SDS011;9231;48.852;9.882;2024-01-10T05:33:07;15.03;;;7.57;;
18210;SDS011;9231;48.852;9.882;2024-01-10T05:35:34;15.63;;;7.70;;
18210;SDS011;9231;48.852;9.882;2024-01-10T05:38:01;16.20;;;7.83;;
18210;SDS011;9231;48.852;9.882;2024-01-10T05:40:28;13.77;;;7.40;;
18210;SDS011;9231;48.852;9.882;2024-01-10T05:42:58;14.43;;;7.90;;
18210;SDS011;9231;48.852;9.882;2024-01-10T05:45:25;13.67;;;7.47;;
18210;SDS011;9231;48.852;9.882;2024-01-10T05:47:51;15.63;;;8.10;;
18210;SDS011;9231;48.852;9.882;2024-01-10T05:50:18;12.33;;;7.40;;
18210;SDS011;9231;48.852;9.882;2024-01-10T05:52:46;18.23;;;8.40;;
18210;SDS011;9231;48.852;9.882;2024-01-10T05:55:12;14.80;;;8.83;;
18210;SDS011;9231;48.852;9.882;2024-01-10T05:57:39;14.17;;;8.63;;
18210;SDS011;9231;48.852;9.882;2024-01-10T06:00:06;13.70;;;7.77;;
18210;SDS011;9231;48.852;9.882;2024-01-10T06:02:34;15.00;;;7.90;;
18210;SDS011;9231;48.852;9.882;2024-01-10T06:05:03;16.70;;;8.40;;
18210;SDS011;9231;48.852;9.882;2024-01-10T06:07:30;15.20;;;8.03;;
18210;SDS011;9231;48.852;9.882;2024-01-10T06:09:58;14.50;;;7.57;;
18210;SDS011;9231;48.852;9.882;2024-01-10T06:12:24;16.90;;;8.27;;
18210;SDS011;9231;48.852;9.882;2024-01-10T06:14:51;14.83;;;8.20;;
18210;SDS011;9231;48.852;9.882;2024-01-10T06:17:17;14.60;;;7.67;;
18210;SDS011;9231;48.852;9.882;2024-01-10T06:19:44;15.87;;;8.10;;
18210;SDS011;9231;48.852;9.882;2024-01-10T06:22:10;16.87;;;9.07;;
18210;SDS011;9231;48.852;9.882;2024-01-10T06:24:37;12.90;;;8.27;;
18210;SDS011;9231;48.852;9.882;2024-01-10T06:27:05;14.30;;;8.37;;
18210;SDS011;9231;48.852;9.882;2024-01-10T06:29:32;16.50;;;8.30;;
18210;SDS011;9231;48.852;9.882;2024-01-10T06:31:59;18.73;;;8.73;;
18210;SDS011;9231;48.852;9.882;2024-01-10T06:34:26;18.67;;;8.27;;
18210;SDS011;9231;48.852;9.882;2024-01-10T06:36:52;16.20;;;9.07;;
18210;SDS011;9231;48.852;9.882;2024-01-10T06:39:19;14.50;;;8.13;;
18210;SDS011;9231;48.852;9.882;2024-01-10T06:41:45;13.73;;;8.33;;
18210;SDS011;9231;48.852;9.882;2024-01-10T06:44:13;17.57;;;8.93;;
18210;SDS011;9231;48.852;9.882;2024-01-10T06:46:41;15.83;;;8.80;;
18210;SDS011;9231;48.852;9.882;2024-01-10T06:49:09;14.90;;;9.17;;
18210;SDS011;9231;48.852;9.882;2024-01-10T06:51:35;17.73;;;8.87;;
18210;SDS011;9231;48.852;9.882;2024-01-10T06:54:02;17.17;;;9.17;;
18210;SDS011;9231;48.852;9.882;2024-01-10T06:56:29;16.20;;;8.87;;
18210;SDS011;9231;48.852;9.882;2024-01-10T06:58:55;16.37;;;9.30;;
18210;SDS011;9231;48.852;9.882;2024-01-10T07:01:23;17.23;;;8.60;;
18210;SDS011;9231;48.852;9.882;2024-01-10T07:03:49;18.23;;;9.00;;
18210;SDS011;9231;48.852;9.882;2024-01-10T07:06:16;15.67;;;8.40;;
18210;SDS011;9231;48.852;9.882;2024-01-10T07:08:43;13.33;;;9.30;;
18210;SDS011;9231;48.852;9.882;2024-01-10T07:11:09;14.50;;;8.20;;
18210;SDS011;9231;48.852;9.882;2024-01-10T07:13:36;17.03;;;9.03;;
18210;SDS011;9231;48.852;9.882;2024-01-10T07:16:03;15.17;;;8.67;;
18210;SDS011;9231;48.852;9.882;2024-01-10T07:18:31;16.40;;;9.53;;
18210;SDS011;9231;48.852;9.882;2024-01-10T07:20:57;17.23;;;9.07;;
18210;SDS011;9231;48.852;9.882;2024-01-10T07:23:24;16.53;;;9.50;;
18210;SDS011;9231;48.852;9.882;2024-01-10T07:25:50;15.30;;;8.47;;
18210;SDS011;9231;48.852;9.882;2024-01-10T07:28:17;16.13;;;9.10;;
18210;SDS011;9231;48.852;9.882;2024-01-10T07:30:43;16.70;;;8.93;;
18210;SDS011;9231;48.852;9.882;2024-01-10T07:33:10;20.00;;;9.13;;
18210;SDS011;9231;48.852;9.882;2024-01-10T07:35:38;17.57;;;8.83;;
18210;SDS011;9231;48.852;9.882;2024-01-10T07:38:05;16.33;;;9.80;;
18210;SDS011;9231;48.852;9.882;2024-01-10T07:40:32;19.43;;;9.03;;
18210;SDS011;9231;48.852;9.882;2024-01-10T07:42:59;20.00;;;10.00;;
18210;SDS011;9231;48.852;9.882;2024-01-10T07:45:25;21.92;;;11.52;;
18210;SDS011;9231;48.852;9.882;2024-01-10T07:47:52;20.07;;;11.03;;
18210;SDS011;9231;48.852;9.882;2024-01-10T07:50:18;17.87;;;10.00;;
18210;SDS011;9231;48.852;9.882;2024-01-10T07:52:46;18.70;;;10.23;;
18210;SDS011;9231;48.852;9.882;2024-01-10T07:55:12;20.33;;;10.87;;
18210;SDS011;9231;48.852;9.882;2024-01-10T07:57:39;16.30;;;10.33;;
18210;SDS011;9231;48.852;9.882;2024-01-10T08:00:07;19.33;;;9.70;;
18210;SDS011;9231;48.852;9.882;2024-01-10T08:02:35;16.50;;;9.60;;
18210;SDS011;9231;48.852;9.882;2024-01-10T08:05:02;25.17;;;13.37;;
18210;SDS011;9231;48.852;9.882;2024-01-10T08:07:30;18.13;;;10.83;;
18210;SDS011;9231;48.852;9.882;2024-01-10T08:09:59;19.50;;;9.83;;
18210;SDS011;9231;48.852;9.882;2024-01-10T08:12:25;19.50;;;10.30;;
18210;SDS011;9231;48.852;9.882;2024-01-10T08:14:53;22.53;;;10.77;;
18210;SDS011;9231;48.852;9.882;2024-01-10T08:17:19;20.13;;;10.37;;
18210;SDS011;9231;48.852;9.882;2024-01-10T08:19:46;16.50;;;9.87;;
18210;SDS011;9231;48.852;9.882;2024-01-10T08:22:12;18.33;;;9.97;;
18210;SDS011;9231;48.852;9.882;2024-01-10T08:24:39;18.00;;;10.57;;
18210;SDS011;9231;48.852;9.882;2024-01-10T08:27:07;20.20;;;10.30;;
18210;SDS011;9231;48.852;9.882;2024-01-10T08:29:33;14.87;;;9.30;;
18210;SDS011;9231;48.852;9.882;2024-01-10T08:32:00;22.10;;;11.13;;
18210;SDS011;9231;48.852;9.882;2024-01-10T08:34:29;17.03;;;9.83;;
18210;SDS011;9231;48.852;9.882;2024-01-10T08:36:55;19.03;;;11.73;;
18210;SDS011;9231;48.852;9.882;2024-01-10T08:39:22;19.17;;;10.80;;
18210;SDS011;9231;48.852;9.882;2024-01-10T08:41:49;21.63;;;11.33;;
18210;SDS011;9231;48.852;9.882;2024-01-10T08:44:17;19.23;;;10.57;;
18210;SDS011;9231;48.852;9.882;2024-01-10T08:46:44;17.93;;;10.57;;
18210;SDS011;9231;48.852;9.882;2024-01-10T08:49:10;19.73;;;10.50;;
18210;SDS011;9231;48.852;9.882;2024-01-10T08:51:37;18.43;;;10.63;;
18210;SDS011;9231;48.852;9.882;2024-01-10T08:54:03;20.17;;;11.63;;
18210;SDS011;9231;48.852;9.882;2024-01-10T08:56:29;18.70;;;10.97;;
18210;SDS011;9231;48.852;9.882;2024-01-10T08:58:56;20.23;;;11.60;;
18210;SDS011;9231;48.852;9.882;2024-01-10T09:01:24;20.50;;;11.47;;
18210;SDS011;9231;48.852;9.882;2024-01-10T09:03:50;16.10;;;9.63;;
18210;SDS011;9231;48.852;9.882;2024-01-10T09:06:17;18.20;;;9.87;;
18210;SDS011;9231;48.852;9.882;2024-01-10T09:08:43;17.83;;;9.83;;
18210;SDS011;9231;48.852;9.882;2024-01-10T09:11:10;19.83;;;11.50;;
18210;SDS011;9231;48.852;9.882;2024-01-10T09:13:36;22.83;;;11.07;;
18210;SDS011;9231;48.852;9.882;2024-01-10T09:16:05;17.23;;;10.23;;
18210;SDS011;9231;48.852;9.882;2024-01-10T09:18:33;22.13;;;11.53;;
18210;SDS011;9231;48.852;9.882;2024-01-10T09:20:59;18.23;;;9.97;;
18210;SDS011;9231;48.852;9.882;2024-01-10T09:23:26;21.73;;;11.03;;
18210;SDS011;9231;48.852;9.882;2024-01-10T09:25:53;19.77;;;10.03;;
18210;SDS011;9231;48.852;9.882;2024-01-10T09:28:20;19.67;;;10.73;;
18210;SDS011;9231;48.852;9.882;2024-01-10T09:30:46;20.37;;;10.63;;
18210;SDS011;9231;48.852;9.882;2024-01-10T09:33:12;19.10;;;9.47;;
18210;SDS011;9231;48.852;9.882;2024-01-10T09:35:40;18.27;;;10.33;;
18210;SDS011;9231;48.852;9.882;2024-01-10T09:38:07;18.47;;;10.33;;
18210;SDS011;9231;48.852;9.882;2024-01-10T09:40:33;22.00;;;10.70;;
18210;SDS011;9231;48.852;9.882;2024-01-10T09:43:00;21.30;;;11.43;;
18210;SDS011;9231;48.852;9.882;2024-01-10T09:45:26;20.60;;;10.63;;
18210;SDS011;9231;48.852;9.882;2024-01-10T09:47:55;21.07;;;10.57;;
18210;SDS011;9231;48.852;9.882;2024-01-10T09:50:22;17.63;;;10.33;;
18210;SDS011;9231;48.852;9.882;2024-01-10T09:52:52;18.33;;;11.23;;
18210;SDS011;9231;48.852;9.882;2024-01-10T09:55:19;23.13;;;11.27;;
18210;SDS011;9231;48.852;9.882;2024-01-10T09:57:47;20.53;;;11.00;;
18210;SDS011;9231;48.852;9.882;2024-01-10T10:00:14;23.37;;;11.67;;
18210;SDS011;9231;48.852;9.882;2024-01-10T10:02:41;19.37;;;11.13;;
18210;SDS011;9231;48.852;9.882;2024-01-10T10:05:09;19.47;;;11.37;;
18210;SDS011;9231;48.852;9.882;2024-01-10T10:07:46;18.00;;;10.17;;
18210;SDS011;9231;48.852;9.882;2024-01-10T10:10:14;22.00;;;11.80;;
18210;SDS011;9231;48.852;9.882;2024-01-10T10:12:44;20.63;;;10.33;;
18210;SDS011;9231;48.852;9.882;2024-01-10T10:15:11;21.30;;;10.90;;
18210;SDS011;9231;48.852;9.882;2024-01-10T10:17:38;20.87;;;11.20;;
18210;SDS011;9231;48.852;9.882;2024-01-10T10:20:11;23.37;;;13.27;;
18210;SDS011;9231;48.852;9.882;2024-01-10T10:22:38;22.10;;;12.13;;
18210;SDS011;9231;48.852;9.882;2024-01-10T10:25:05;22.87;;;12.07;;
18210;SDS011;9231;48.852;9.882;2024-01-10T10:27:33;19.03;;;10.40;;
18210;SDS011;9231;48.852;9.882;2024-01-10T10:30:03;20.17;;;11.20;;
18210;SDS011;9231;48.852;9.882;2024-01-10T10:32:30;21.87;;;11.83;;
18210;SDS011;9231;48.852;9.882;2024-01-10T10:34:56;22.83;;;11.27;;
18210;SDS011;9231;48.852;9.882;2024-01-10T10:37:22;22.23;;;11.30;;
18210;SDS011;9231;48.852;9.882;2024-01-10T10:39:49;17.37;;;10.03;;
18210;SDS011;9231;48.852;9.882;2024-01-10T10:42:15;23.40;;;12.50;;
18210;SDS011;9231;48.852;9.882;2024-01-10T10:44:43;18.13;;;10.93;;
18210;SDS011;9231;48.852;9.882;2024-01-10T10:47:11;20.73;;;12.50;;
18210;SDS011;9231;48.852;9.882;2024-01-10T10:49:40;20.83;;;12.30;;
18210;SDS011;9231;48.852;9.882;2024-01-10T10:52:10;22.77;;;12.97;;
18210;SDS011;9231;48.852;9.882;2024-01-10T10:54:36;27.10;;;11.40;;
18210;SDS011;9231;48.852;9.882;2024-01-10T10:57:04;23.77;;;12.63;;
18210;SDS011;9231;48.852;9.882;2024-01-10T10:59:31;20.10;;;11.03;;
18210;SDS011;9231;48.852;9.882;2024-01-10T11:02:01;20.73;;;12.73;;
18210;SDS011;9231;48.852;9.882;2024-01-10T11:04:27;21.40;;;12.87;;
18210;SDS011;9231;48.852;9.882;2024-01-10T11:06:55;20.53;;;11.00;;
18210;SDS011;9231;48.852;9.882;2024-01-10T11:09:21;22.53;;;12.67;;
18210;SDS011;9231;48.852;9.882;2024-01-10T11:11:57;23.40;;;12.53;;
18210;SDS011;9231;48.852;9.882;2024-01-10T11:14:30;20.87;;;13.47;;
18210;SDS011;9231;48.852;9.882;2024-01-10T11:17:08;22.30;;;11.90;;
18210;SDS011;9231;48.852;9.882;2024-01-10T11:22:31;23.23;;;12.90;;
18210;SDS011;9231;48.852;9.882;2024-01-10T11:25:02;19.07;;;12.90;;
18210;SDS011;9231;48.852;9.882;2024-01-10T11:27:30;26.83;;;13.70;;
18210;SDS011;9231;48.852;9.882;2024-01-10T11:29:56;21.90;;;11.83;;
18210;SDS011;9231;48.852;9.882;2024-01-10T11:32:25;21.10;;;12.37;;
18210;SDS011;9231;48.852;9.882;2024-01-10T11:34:57;23.30;;;11.53;;
18210;SDS011;9231;48.852;9.882;2024-01-10T11:37:27;23.00;;;12.17;;
18210;SDS011;9231;48.852;9.882;2024-01-10T11:39:54;23.43;;;13.73;;
18210;SDS011;9231;48.852;9.882;2024-01-10T11:42:23;21.33;;;12.63;;
18210;SDS011;9231;48.852;9.882;2024-01-10T11:44:50;23.90;;;13.10;;
18210;SDS011;9231;48.852;9.882;2024-01-10T11:47:17;22.17;;;12.13;;
18210;SDS011;9231;48.852;9.882;2024-01-10T11:49:55;23.37;;;14.03;;
18210;SDS011;9231;48.852;9.882;2024-01-10T11:52:22;23.33;;;13.63;;
18210;SDS011;9231;48.852;9.882;2024-01-10T11:54:49;26.73;;;12.87;;
18210;SDS011;9231;48.852;9.882;2024-01-10T11:57:20;25.60;;;13.60;;
18210;SDS011;9231;48.852;9.882;2024-01-10T11:59:47;22.00;;;13.33;;
18210;SDS011;9231;48.852;9.882;2024-01-10T12:02:14;22.80;;;13.87;;
18210;SDS011;9231;48.852;9.882;2024-01-10T12:04:40;20.97;;;13.00;;
18210;SDS011;9231;48.852;9.882;2024-01-10T12:07:09;19.27;;;12.53;;
18210;SDS011;9231;48.852;9.882;2024-01-10T12:09:35;22.77;;;13.97;;
18210;SDS011;9231;48.852;9.882;2024-01-10T12:12:02;19.43;;;12.50;;
18210;SDS011;9231;48.852;9.882;2024-01-10T12:14:28;22.57;;;13.10;;
18210;SDS011;9231;48.852;9.882;2024-01-10T12:16:55;19.50;;;13.10;;
18210;SDS011;9231;48.852;9.882;2024-01-10T12:19:22;23.30;;;13.90;;
18210;SDS011;9231;48.852;9.882;2024-01-10T12:21:48;20.37;;;12.87;;
18210;SDS011;9231;48.852;9.882;2024-01-10T12:24:16;21.37;;;13.30;;
18210;SDS011;9231;48.852;9.882;2024-01-10T12:26:43;25.37;;;14.27;;
18210;SDS011;9231;48.852;9.882;2024-01-10T12:29:10;20.47;;;13.10;;
18210;SDS011;9231;48.852;9.882;2024-01-10T12:31:36;21.97;;;13.87;;
18210;SDS011;9231;48.852;9.882;2024-01-10T12:34:04;20.53;;;13.53;;
18210;SDS011;9231;48.852;9.882;2024-01-10T12:36:32;20.57;;;12.70;;
18210;SDS011;9231;48.852;9.882;2024-01-10T12:38:59;20.27;;;12.93;;
18210;SDS011;9231;48.852;9.882;2024-01-10T12:41:27;22.80;;;13.53;;
18210;SDS011;9231;48.852;9.882;2024-01-10T12:43:53;21.67;;;13.23;;
18210;SDS011;9231;48.852;9.882;2024-01-10T12:46:25;23.77;;;12.97;;
18210;SDS011;9231;48.852;9.882;2024-01-10T12:48:58;20.37;;;12.40;;
18210;SDS011;9231;48.852;9.882;2024-01-10T12:51:26;21.50;;;13.30;;
18210;SDS011;9231;48.852;9.882;2024-01-10T12:53:52;19.87;;;12.23;;
18210;SDS011;9231;48.852;9.882;2024-01-10T12:56:19;19.23;;;13.27;;
18210;SDS011;9231;48.852;9.882;2024-01-10T12:58:46;21.77;;;13.73;;
18210;SDS011;9231;48.852;9.882;2024-01-10T13:01:13;21.37;;;12.87;;
18210;SDS011;9231;48.852;9.882;2024-01-10T13:03:40;19.40;;;12.70;;
18210;SDS011;9231;48.852;9.882;2024-01-10T13:06:08;22.27;;;13.27;;
18210;SDS011;9231;48.852;9.882;2024-01-10T13:08:35;19.30;;;13.20;;
18210;SDS011;9231;48.852;9.882;2024-01-10T13:11:01;23.37;;;13.10;;
18210;SDS011;9231;48.852;9.882;2024-01-10T13:13:32;19.23;;;12.33;;
18210;SDS011;9231;48.852;9.882;2024-01-10T13:16:00;19.27;;;11.93;;
18210;SDS011;9231;48.852;9.882;2024-01-10T13:18:26;19.10;;;12.70;;
18210;SDS011;9231;48.852;9.882;2024-01-10T13:20:53;19.93;;;12.97;;
18210;SDS011;9231;48.852;9.882;2024-01-10T13:23:20;21.47;;;13.13;;
18210;SDS011;9231;48.852;9.882;2024-01-10T13:25:47;19.97;;;12.40;;
18210;SDS011;9231;48.852;9.882;2024-01-10T13:28:14;20.53;;;12.90;;
18210;SDS011;9231;48.852;9.882;2024-01-10T13:30:40;21.73;;;13.77;;
18210;SDS011;9231;48.852;9.882;2024-01-10T13:33:09;19.30;;;12.33;;
18210;SDS011;9231;48.852;9.882;2024-01-10T13:35:36;22.23;;;13.17;;
18210;SDS011;9231;48.852;9.882;2024-01-10T13:38:02;23.27;;;13.83;;
18210;SDS011;9231;48.852;9.882;2024-01-10T13:40:32;20.93;;;12.43;;
18210;SDS011;9231;48.852;9.882;2024-01-10T13:42:59;20.63;;;13.10;;
18210;SDS011;9231;48.852;9.882;2024-01-10T13:45:30;20.33;;;13.47;;
18210;SDS011;9231;48.852;9.882;2024-01-10T13:48:00;22.57;;;13.47;;
18210;SDS011;9231;48.852;9.882;2024-01-10T13:50:27;19.27;;;11.70;;
18210;SDS011;9231;48.852;9.882;2024-01-10T13:52:55;21.80;;;13.53;;
18210;SDS011;9231;48.852;9.882;2024-01-10T13:55:21;22.10;;;13.00;;
18210;SDS011;9231;48.852;9.882;2024-01-10T13:57:50;22.07;;;13.23;;
18210;SDS011;9231;48.852;9.882;2024-01-10T14:00:19;22.00;;;12.33;;
18210;SDS011;9231;48.852;9.882;2024-01-10T14:03:02;19.43;;;12.37;;
18210;SDS011;9231;48.852;9.882;2024-01-10T14:05:42;19.10;;;12.50;;
18210;SDS011;9231;48.852;9.882;2024-01-10T14:08:09;20.53;;;13.10;;
18210;SDS011;9231;48.852;9.882;2024-01-10T14:10:36;21.50;;;12.67;;
18210;SDS011;9231;48.852;9.882;2024-01-10T14:13:04;22.10;;;13.83;;
18210;SDS011;9231;48.852;9.882;2024-01-10T14:15:30;21.57;;;12.33;;
18210;SDS011;9231;48.852;9.882;2024-01-10T14:17:57;23.17;;;13.47;;
18210;SDS011;9231;48.852;9.882;2024-01-10T14:20:23;21.17;;;12.87;;
18210;SDS011;9231;48.852;9.882;2024-01-10T14:22:53;22.30;;;12.73;;
18210;SDS011;9231;48.852;9.882;2024-01-10T14:25:22;22.20;;;12.77;;
18210;SDS011;9231;48.852;9.882;2024-01-10T14:27:49;20.17;;;12.17;;
18210;SDS011;9231;48.852;9.882;2024-01-10T14:30:15;20.43;;;12.63;;
18210;SDS011;9231;48.852;9.882;2024-01-10T14:32:41;19.43;;;11.47;;
18210;SDS011;9231;48.852;9.882;2024-01-10T14:35:07;20.23;;;11.40;;
18210;SDS011;9231;48.852;9.882;2024-01-10T14:37:34;18.60;;;11.83;;
18210;SDS011;9231;48.852;9.882;2024-01-10T14:40:03;24.03;;;12.83;;
18210;SDS011;9231;48.852;9.882;2024-01-10T14:42:31;21.13;;;12.97;;
18210;SDS011;9231;48.852;9.882;2024-01-10T14:44:58;18.17;;;12.60;;